Gouverneur, NY (13642)

9:22 PM EDT on April 19, 2015 (GMT -0400)
Village of Gouverneur (Barnes St.) | | Change Station
CLOSE
Current Station
Personal Weather Station
Location: Gouverneur, NY
Elevation: 433 ft
Nearby Weather Stations

Elev 433 ft 44.34 °N, 75.47 °W | Updated 14 minutes ago

Overcast
Overcast
49.3 °F
Feels Like 49 °F
N
0.0
Wind Variable Wind from NE

Today
High -- | Low -- °F
--% Chance of Precip.
Yesterday
High -- | Low -- °F
Precip. -- in
6:11 AM 7:50 PM
New Moon, 2% visible
Pressure 30.04 in
Visibility 10.0 miles
Clouds Mostly Cloudy 20000 ft
Overcast 23000 ft
Windchill 49 °F
Dew Point 43 °F
Humidity 78%
Rainfall 0.00 in
Snow Depth Not available.
UV 0 out of 12
Pollen 10.50 out of 12
Air Quality Not available.
Flu Activity Widespread
METAR KGTB 200058Z AUTO 07007KT 10SM BKN200 OVC230 11/M02 A3002 RMK AO2 SLP170 T01081020

More Conditions Fewer Conditions

Pressure 30.04 in
Visibility 10.0 miles
Clouds Mostly Cloudy 20000 ft
Overcast 23000 ft
Windchill 49 °F
Dew Point 43 °F
Humidity 78%
Rainfall 0.00 in
Snow Depth Not available.
UV 0 out of 12
Pollen 10.50 out of 12
Air Quality Not available.
Flu Activity Widespread
METAR KGTB 200058Z AUTO 07007KT 10SM BKN200 OVC230 11/M02 A3002 RMK AO2 SLP170 T01081020

More Conditions Fewer Conditions

10-Day Weather Forecast

Almanac

Astronomy

Apr. 19, 2015 Rise Set
Actual Time
Civil Twilight
Nautical Twilight
Astronomical Twilight
Moon
Length of Visible Light
Length of Day
Tomorrow will be .
, % of the Moon is Illuminated

Today's Extremes

State Highs State Lows

Community

WunderPhotos

Upload Photos

1,815,083 photos uploaded!

WunderBlogs® & News

Nearby

Air Quality

  Air Quality AQ Index Pollutant
Not available.

Snow Depth

Station Depth Elevation

Earthquake Activity

City Distance Mag. Time & Date
Minimum magnitude displayed is 2.5.

Coastal Water Temperatures

Place Temperature

Stations

Nearby Weather Stations

Station Location Temp. Windchill Dew Point Humidity Wind Precip. Elev Updated Type